createdAt,value
2022-10-28T00:00:00.707Z,87.71
2022-10-28T00:02:47.813Z,87.82
2022-10-28T00:05:35.890Z,87.87
2022-10-28T00:08:25.058Z,88.51
2022-10-28T00:11:14.188Z,89.22
2022-10-28T00:14:05.729Z,88.29
2022-10-28T00:16:52.997Z,88.05
2022-10-28T00:19:40.170Z,89.05
2022-10-28T00:22:27.569Z,89.46
2022-10-28T00:25:16.317Z,89.14
2022-10-28T00:28:03.379Z,89.65
2022-10-28T00:30:50.870Z,89.35
2022-10-28T00:33:39.598Z,89.35
2022-10-28T00:36:28.829Z,88.88
2022-10-28T00:39:17.987Z,90.26
2022-10-28T00:42:07.413Z,90.53
2022-10-28T00:44:58.332Z,92.55
2022-10-28T00:47:52.702Z,94.32
2022-10-28T00:50:47.309Z,94.62
2022-10-28T00:53:35.181Z,92.12
2022-10-28T00:59:22.910Z,90.28
2022-10-28T01:02:10.413Z,90.47
2022-10-28T01:04:57.741Z,90.23
2022-10-28T01:07:45.777Z,89.62
2022-10-28T01:10:46.048Z,90.50
2022-10-28T01:13:45.811Z,90.19
2022-10-28T01:16:43.403Z,90.81
2022-10-28T01:20:15.029Z,91.52
2022-10-28T01:23:09.501Z,90.88
2022-10-28T01:26:13.638Z,89.57
2022-10-28T01:29:55.820Z,90.11
2022-10-28T01:32:53.573Z,89.72
2022-10-28T01:35:50.088Z,89.90
2022-10-28T01:38:48.011Z,90.04
2022-10-28T01:41:38.952Z,90.43
2022-10-28T01:44:32.544Z,89.50
2022-10-28T01:47:24.056Z,90.10
2022-10-28T01:50:20.003Z,89.83
2022-10-28T01:53:11.154Z,90.08
2022-10-28T01:56:03.970Z,89.75
2022-10-28T01:58:52.480Z,90.05
2022-10-28T02:01:39.781Z,89.59
2022-10-28T02:04:27.640Z,89.85
2022-10-28T02:07:17.832Z,90.06
2022-10-28T02:10:12.949Z,89.40
2022-10-28T02:13:03.840Z,89.79
2022-10-28T02:15:57.778Z,89.81
2022-10-28T02:18:53.198Z,89.13
2022-10-28T02:21:50.986Z,89.47
2022-10-28T02:24:50.598Z,89.11
2022-10-28T02:27:44.082Z,89.90
2022-10-28T02:30:35.982Z,89.66
2022-10-28T02:33:28.246Z,88.89
2022-10-28T02:36:18.344Z,89.07
2022-10-28T02:39:07.859Z,88.29
2022-10-28T02:42:02.462Z,88.37
2022-10-28T02:44:55.124Z,89.05
2022-10-28T02:47:48.007Z,88.88
2022-10-28T02:50:39.518Z,88.06
2022-10-28T02:53:32.197Z,88.47
2022-10-28T02:56:22.496Z,88.01
2022-10-28T02:59:13.519Z,87.83
2022-10-28T03:02:01.325Z,88.23
2022-10-28T03:04:49.049Z,88.33
2022-10-28T03:07:36.599Z,88.37
2022-10-28T03:10:24.140Z,89.22
2022-10-28T03:13:11.478Z,88.83
2022-10-28T03:16:00.115Z,87.97
2022-10-28T03:18:47.098Z,88.23
2022-10-28T03:21:34.852Z,89.43
2022-10-28T03:24:22.573Z,89.18
2022-10-28T03:27:10.320Z,89.29
2022-10-28T03:29:57.761Z,88.22
2022-10-28T03:32:46.930Z,89.11
2022-10-28T03:35:34.563Z,88.98
2022-10-28T03:38:22.009Z,89.13
2022-10-28T03:41:09.350Z,88.25
2022-10-28T03:43:56.865Z,88.00
2022-10-28T03:46:44.157Z,87.52
2022-10-28T03:49:32.996Z,88.15
2022-10-28T03:52:20.371Z,87.97
2022-10-28T03:55:08.832Z,88.92
2022-10-28T03:57:56.404Z,88.00
2022-10-28T04:00:43.996Z,87.93
2022-10-28T04:03:31.610Z,87.45
2022-10-28T04:06:20.729Z,87.41
2022-10-28T04:09:08.977Z,88.11
2022-10-28T04:11:56.479Z,88.57
2022-10-28T04:14:44.028Z,88.02
2022-10-28T04:17:31.803Z,87.78
2022-10-28T04:20:19.429Z,87.67
2022-10-28T04:23:08.446Z,87.18
2022-10-28T04:25:56.440Z,88.24
2022-10-28T04:28:44.041Z,87.29
2022-10-28T04:31:31.187Z,87.21
2022-10-28T04:34:18.609Z,88.18
2022-10-28T04:37:06.180Z,87.79
2022-10-28T04:39:54.752Z,88.00
2022-10-28T04:42:42.640Z,88.20
2022-10-28T04:45:29.968Z,88.00
2022-10-28T04:48:17.074Z,87.45
2022-10-28T04:51:04.422Z,87.41
2022-10-28T04:53:51.892Z,87.69
2022-10-28T04:56:40.610Z,87.07
2022-10-28T04:59:27.918Z,87.16
2022-10-28T05:02:15.421Z,87.51
2022-10-28T05:05:04.566Z,88.09
2022-10-28T05:07:52.402Z,87.54
2022-10-28T05:10:40.338Z,87.89
2022-10-28T05:13:29.376Z,87.51
2022-10-28T05:16:17.136Z,88.23
2022-10-28T05:19:04.889Z,88.50
2022-10-28T05:21:52.808Z,88.25
2022-10-28T05:24:39.902Z,87.86
2022-10-28T05:27:27.827Z,87.90
2022-10-28T05:30:17.400Z,88.25
2022-10-28T05:33:05.735Z,88.77
2022-10-28T05:35:53.920Z,88.54
2022-10-28T05:38:42.483Z,87.71
2022-10-28T05:41:29.958Z,88.30
2022-10-28T05:44:17.355Z,88.42
2022-10-28T05:47:06.262Z,88.86
2022-10-28T05:49:53.808Z,88.64
2022-10-28T05:52:41.158Z,89.27
2022-10-28T05:55:31.711Z,88.60
2022-10-28T05:58:19.378Z,88.85
2022-10-28T06:01:09.781Z,89.16
2022-10-28T06:04:00.889Z,88.79
2022-10-28T06:06:48.710Z,88.51
2022-10-28T06:09:36.131Z,89.23
2022-10-28T06:12:21.908Z,89.05
2022-10-28T06:15:10.271Z,88.71
2022-10-28T06:17:57.683Z,88.06
2022-10-28T06:20:51.246Z,88.20
2022-10-28T06:23:38.472Z,88.02
2022-10-28T06:26:25.915Z,88.43
2022-10-28T06:29:13.898Z,88.29
2022-10-28T06:32:01.313Z,89.03
2022-10-28T06:34:48.595Z,88.79
2022-10-28T06:37:37.546Z,88.12
2022-10-28T06:40:26.563Z,86.73
2022-10-28T06:43:14.063Z,86.92
2022-10-28T06:46:03.971Z,86.58
2022-10-28T06:48:55.460Z,86.29
2022-10-28T06:51:42.941Z,84.48
2022-10-28T06:54:31.630Z,83.95
2022-10-28T06:57:19.316Z,83.99
2022-10-28T07:00:07.873Z,83.98
2022-10-28T07:02:56.455Z,83.29
2022-10-28T07:05:44.153Z,82.08
2022-10-28T07:08:32.689Z,81.02
2022-10-28T07:11:22.180Z,80.83
2022-10-28T07:14:09.590Z,80.08
2022-10-28T07:16:57.105Z,81.25
2022-10-28T07:19:44.717Z,82.23
2022-10-28T07:22:32.358Z,81.52
2022-10-28T07:25:19.638Z,81.05
2022-10-28T07:28:09.429Z,81.77
2022-10-28T07:31:00.996Z,82.25
2022-10-28T07:33:53.164Z,81.85
2022-10-28T07:36:40.720Z,81.13
2022-10-28T07:39:30.270Z,82.23
2022-10-28T07:42:17.534Z,82.00
2022-10-28T07:45:07.657Z,83.17
2022-10-28T07:47:55.348Z,81.90
2022-10-28T07:50:42.961Z,81.01
2022-10-28T07:53:30.429Z,79.29
2022-10-28T07:56:17.940Z,76.67
2022-10-28T07:59:05.108Z,76.39
2022-10-28T08:01:54.673Z,76.23
2022-10-28T08:04:42.163Z,75.27
2022-10-28T08:07:29.723Z,73.44
2022-10-28T08:10:17.930Z,73.81
2022-10-28T08:13:07.292Z,74.04
2022-10-28T08:15:54.625Z,74.30
2022-10-28T08:18:44.062Z,73.68
2022-10-28T08:21:31.521Z,72.85
2022-10-28T08:24:19.259Z,72.60
2022-10-28T08:27:06.901Z,73.03
2022-10-28T08:29:54.448Z,72.89
2022-10-28T08:32:41.954Z,72.76
2022-10-28T08:35:30.848Z,72.33
2022-10-28T08:38:19.780Z,70.69
2022-10-28T08:41:18.982Z,71.07
2022-10-28T08:44:46.950Z,71.28
2022-10-28T08:47:43.756Z,70.61
2022-10-28T08:50:36.149Z,69.46
2022-10-28T08:53:28.776Z,69.84
2022-10-28T08:56:20.790Z,69.04
2022-10-28T08:59:14.614Z,69.01
2022-10-28T09:02:12.973Z,68.60
2022-10-28T09:05:09.155Z,67.09
2022-10-28T09:07:59.545Z,66.49
2022-10-28T09:11:02.834Z,67.33
2022-10-28T09:14:20.847Z,66.27
2022-10-28T09:17:18.700Z,67.15
2022-10-28T09:20:16.487Z,65.36
2022-10-28T09:23:12.104Z,65.75
2022-10-28T09:26:11.292Z,65.87
2022-10-28T09:29:10.479Z,66.13
2022-10-28T09:32:07.533Z,65.60
2022-10-28T09:35:01.477Z,65.85
2022-10-28T09:37:53.818Z,65.23
2022-10-28T09:40:48.815Z,62.18
2022-10-28T09:43:39.516Z,60.60
2022-10-28T09:46:33.340Z,59.15
2022-10-28T09:49:27.362Z,58.45
2022-10-28T09:52:20.257Z,58.78
2022-10-28T09:55:17.682Z,58.88
2022-10-28T09:58:07.734Z,58.94
2022-10-28T10:00:57.091Z,57.76
2022-10-28T10:03:45.624Z,59.10
2022-10-28T10:06:36.819Z,59.08
2022-10-28T10:09:27.364Z,58.58
2022-10-28T10:12:15.416Z,58.07
2022-10-28T10:15:08.366Z,58.32
2022-10-28T10:17:59.285Z,56.71
2022-10-28T10:20:49.842Z,55.87
2022-10-28T10:26:33.856Z,54.78
2022-10-28T10:29:22.858Z,53.77
2022-10-28T10:32:19.028Z,54.47
2022-10-28T10:35:20.517Z,54.35
2022-10-28T10:38:09.215Z,54.38
2022-10-28T10:40:57.485Z,54.96
2022-10-28T10:43:45.398Z,53.80
2022-10-28T10:46:32.990Z,53.35
2022-10-28T10:49:21.588Z,54.83
2022-10-28T10:52:19.031Z,54.32
2022-10-28T10:55:09.147Z,53.59
2022-10-28T10:57:57.371Z,54.40
2022-10-28T11:00:48.744Z,53.13
2022-10-28T11:03:39.424Z,54.58
2022-10-28T11:06:31.820Z,54.87
2022-10-28T11:09:22.437Z,53.87
2022-10-28T11:12:17.626Z,54.76
2022-10-28T11:15:21.482Z,54.78
2022-10-28T11:18:20.689Z,53.40
2022-10-28T11:21:21.921Z,53.37
2022-10-28T11:24:38.241Z,54.09
2022-10-28T11:27:39.429Z,54.22
2022-10-28T11:30:38.195Z,54.73
2022-10-28T11:33:33.051Z,54.52
2022-10-28T11:36:25.001Z,54.40
2022-10-28T11:39:21.878Z,53.52
2022-10-28T11:42:23.764Z,54.33
2022-10-28T11:45:18.385Z,54.39
2022-10-28T11:48:23.940Z,55.09
2022-10-28T11:51:22.251Z,54.43
2022-10-28T11:54:32.994Z,55.11
2022-10-28T11:57:30.721Z,54.47
2022-10-28T12:00:32.235Z,55.41
2022-10-28T12:03:54.827Z,55.09
2022-10-28T12:06:58.793Z,53.63
2022-10-28T12:10:04.617Z,54.25
2022-10-28T12:13:01.247Z,54.82
2022-10-28T12:16:00.937Z,55.45
2022-10-28T12:18:54.208Z,53.50
2022-10-28T12:21:45.510Z,54.31
2022-10-28T12:24:37.081Z,53.89
2022-10-28T12:27:31.164Z,54.32
2022-10-28T12:30:23.469Z,53.66
2022-10-28T12:33:16.336Z,54.36
2022-10-28T12:36:22.146Z,53.19
2022-10-28T12:39:16.621Z,53.69
2022-10-28T12:42:07.005Z,54.95
2022-10-28T12:44:59.984Z,54.43
2022-10-28T12:47:53.239Z,54.22
2022-10-28T12:50:47.587Z,55.53
2022-10-28T12:53:41.589Z,55.08
2022-10-28T12:56:34.617Z,54.94
2022-10-28T12:59:29.120Z,53.17
2022-10-28T13:02:23.212Z,53.93
2022-10-28T13:05:21.893Z,53.63
2022-10-28T13:08:30.143Z,55.06
2022-10-28T13:11:53.004Z,55.58
2022-10-28T13:15:03.402Z,56.14
2022-10-28T13:18:06.821Z,54.85
2022-10-28T13:21:05.766Z,53.63
2022-10-28T13:23:59.733Z,53.75
2022-10-28T13:26:49.573Z,54.88
2022-10-28T13:29:39.496Z,54.41
2022-10-28T13:32:37.431Z,55.04
2022-10-28T13:35:30.363Z,54.06
2022-10-28T13:38:22.931Z,55.99
2022-10-28T13:41:27.535Z,56.52
2022-10-28T13:44:49.153Z,56.01
2022-10-28T13:47:37.844Z,56.21
2022-10-28T13:50:37.382Z,56.09
2022-10-28T13:53:55.364Z,56.93
2022-10-28T13:56:48.018Z,56.00
2022-10-28T13:59:50.483Z,57.63
2022-10-28T14:02:40.704Z,57.80
2022-10-28T14:05:54.812Z,58.93
2022-10-28T14:08:43.815Z,58.09
2022-10-28T14:11:32.745Z,57.35
2022-10-28T14:14:21.413Z,57.57
2022-10-28T14:17:22.294Z,56.16
2022-10-28T14:20:24.643Z,56.20
2022-10-28T14:23:49.383Z,56.60
2022-10-28T14:27:19.722Z,57.66
2022-10-28T14:30:20.213Z,58.19
2022-10-28T14:33:23.299Z,58.52
2022-10-28T14:36:28.344Z,58.77
2022-10-28T14:39:37.210Z,59.09
2022-10-28T14:42:40.120Z,59.34
2022-10-28T14:45:40.542Z,59.64
2022-10-28T14:48:41.620Z,61.70
2022-10-28T14:51:37.863Z,62.66
2022-10-28T14:54:40.619Z,61.94
2022-10-28T14:57:32.789Z,62.62
2022-10-28T15:00:26.090Z,62.90
2022-10-28T15:03:15.368Z,63.74
2022-10-28T15:06:03.858Z,65.33
2022-10-28T15:08:53.910Z,65.83
2022-10-28T15:11:46.405Z,67.60
2022-10-28T15:14:36.813Z,68.96
2022-10-28T15:17:27.095Z,66.33
2022-10-28T15:20:22.827Z,66.25
2022-10-28T15:23:13.928Z,66.13
2022-10-28T15:26:08.901Z,66.40
2022-10-28T15:28:56.911Z,66.59
2022-10-28T15:32:12.326Z,66.30
2022-10-28T15:35:00.491Z,67.18
2022-10-28T15:37:49.645Z,67.93
2022-10-28T15:40:39.093Z,70.40
2022-10-28T15:43:31.213Z,68.91
2022-10-28T15:46:19.000Z,68.56
2022-10-28T15:49:07.381Z,68.36
2022-10-28T15:52:22.271Z,68.76
2022-10-28T15:56:02.251Z,69.65
2022-10-28T15:58:42.499Z,70.05
2022-10-28T16:01:38.309Z,72.03
2022-10-28T16:04:44.300Z,71.64
2022-10-28T16:07:31.841Z,73.36
2022-10-28T16:10:19.742Z,73.65
2022-10-28T16:13:11.502Z,74.09
2022-10-28T16:16:02.840Z,73.63
2022-10-28T16:18:54.278Z,73.86
2022-10-28T16:21:42.015Z,73.95
2022-10-28T16:24:29.373Z,74.82
2022-10-28T16:27:19.591Z,75.49
2022-10-28T16:30:09.648Z,75.80
2022-10-28T16:32:58.156Z,75.94
2022-10-28T16:35:45.374Z,75.03
2022-10-28T16:38:33.495Z,76.25
2022-10-28T16:41:21.677Z,76.95
2022-10-28T16:44:17.849Z,77.55
2022-10-28T16:47:12.547Z,77.69
2022-10-28T16:50:00.110Z,77.00
2022-10-28T16:52:47.812Z,76.28
2022-10-28T16:55:35.032Z,75.95
2022-10-28T16:58:24.757Z,75.46
2022-10-28T17:01:19.606Z,75.77
2022-10-28T17:04:10.169Z,76.25
2022-10-28T17:06:57.816Z,78.08
2022-10-28T17:09:45.377Z,78.21
2022-10-28T17:12:33.097Z,78.57
2022-10-28T17:15:21.528Z,78.63
2022-10-28T17:18:10.331Z,76.33
2022-10-28T17:21:03.063Z,74.49
2022-10-28T17:23:50.719Z,74.10
2022-10-28T17:26:38.604Z,75.18
2022-10-28T17:29:26.196Z,75.79
2022-10-28T17:32:14.122Z,76.23
2022-10-28T17:35:01.529Z,73.58
2022-10-28T17:37:50.525Z,72.96
2022-10-28T17:40:38.097Z,71.64
2022-10-28T17:43:26.143Z,71.57
2022-10-28T17:46:13.989Z,70.07
2022-10-28T17:49:06.500Z,69.96
2022-10-28T17:51:53.833Z,68.89
2022-10-28T17:54:42.447Z,69.37
2022-10-28T17:57:30.389Z,69.28
2022-10-28T18:00:18.148Z,68.56
2022-10-28T18:03:06.408Z,68.95
2022-10-28T18:05:54.089Z,68.84
2022-10-28T18:08:43.345Z,68.08
2022-10-28T18:11:35.335Z,68.65
2022-10-28T18:14:22.952Z,68.90
2022-10-28T18:17:13.156Z,69.92
2022-10-28T18:20:02.165Z,69.13
2022-10-28T18:22:49.539Z,69.79
2022-10-28T18:25:37.608Z,69.83
2022-10-28T18:28:26.706Z,69.40
2022-10-28T18:31:16.347Z,69.44
2022-10-28T18:34:04.805Z,70.50
2022-10-28T18:36:53.025Z,70.35
2022-10-28T18:39:40.669Z,71.05
2022-10-28T18:42:28.154Z,71.82
2022-10-28T18:45:17.184Z,71.74
2022-10-28T18:48:06.564Z,71.08
2022-10-28T18:50:57.568Z,71.78
2022-10-28T18:53:47.206Z,72.58
2022-10-28T18:56:36.548Z,73.58
2022-10-28T18:59:24.261Z,75.04
2022-10-28T19:02:13.704Z,75.88
2022-10-28T19:05:01.011Z,75.82
2022-10-28T19:07:48.581Z,75.79
2022-10-28T19:10:35.775Z,77.04
2022-10-28T19:13:23.450Z,76.46
2022-10-28T19:16:14.009Z,77.19
2022-10-28T19:19:04.382Z,78.17
2022-10-28T19:21:52.326Z,78.92
2022-10-28T19:24:39.968Z,79.33
2022-10-28T19:27:27.155Z,79.24
2022-10-28T19:30:14.569Z,80.23
2022-10-28T19:33:02.155Z,80.95
2022-10-28T19:35:50.589Z,81.65
2022-10-28T19:38:39.312Z,80.95
2022-10-28T19:41:28.433Z,81.52
2022-10-28T19:44:16.127Z,82.14
2022-10-28T19:47:03.792Z,82.03
2022-10-28T19:49:51.563Z,81.10
2022-10-28T19:52:40.379Z,82.49
2022-10-28T19:55:27.971Z,82.63
2022-10-28T19:58:15.461Z,83.85
2022-10-28T20:01:04.363Z,83.21
2022-10-28T20:03:52.108Z,82.70
2022-10-28T20:06:41.342Z,82.21
2022-10-28T20:09:30.566Z,80.72
2022-10-28T20:12:18.426Z,82.12
2022-10-28T20:15:07.223Z,82.25
2022-10-28T20:17:54.420Z,83.75
2022-10-28T20:20:41.925Z,84.25
2022-10-28T20:23:29.560Z,83.63
2022-10-28T20:26:18.342Z,84.25
2022-10-28T20:29:06.847Z,83.36
2022-10-28T20:31:54.237Z,83.82
2022-10-28T20:34:41.577Z,82.86
2022-10-28T20:37:29.159Z,83.18
2022-10-28T20:40:17.209Z,83.90
2022-10-28T20:43:06.167Z,83.57
2022-10-28T20:45:55.603Z,83.43
2022-10-28T20:48:42.852Z,82.12
2022-10-28T20:51:31.648Z,82.60
2022-10-28T20:54:19.539Z,83.93
2022-10-28T20:57:06.879Z,84.29
2022-10-28T20:59:56.494Z,83.78
2022-10-28T21:02:43.829Z,83.83
2022-10-28T21:05:32.480Z,84.26
2022-10-28T21:08:20.037Z,84.51
2022-10-28T21:11:09.114Z,85.02
2022-10-28T21:13:58.415Z,85.56
2022-10-28T21:16:47.303Z,84.90
2022-10-28T21:19:34.980Z,85.40
2022-10-28T21:22:23.063Z,84.96
2022-10-28T21:25:11.161Z,84.35
2022-10-28T21:27:58.750Z,85.51
2022-10-28T21:30:46.326Z,85.95
2022-10-28T21:33:36.646Z,85.44
2022-10-28T21:36:24.351Z,86.30
2022-10-28T21:39:11.974Z,85.69
2022-10-28T21:41:59.432Z,84.73
2022-10-28T21:44:47.171Z,84.86
2022-10-28T21:47:35.221Z,85.46
2022-10-28T21:50:23.878Z,85.60
2022-10-28T21:53:11.462Z,86.64
2022-10-28T21:56:03.932Z,86.16
2022-10-28T21:58:51.957Z,86.46
2022-10-28T22:01:39.333Z,86.89
2022-10-28T22:04:27.140Z,87.50
2022-10-28T22:07:16.984Z,88.76
2022-10-28T22:10:04.683Z,88.25
2022-10-28T22:12:51.795Z,88.40
2022-10-28T22:15:38.974Z,88.07
2022-10-28T22:18:26.208Z,88.56
2022-10-28T22:21:14.782Z,88.88
2022-10-28T22:24:03.018Z,89.31
2022-10-28T22:26:50.091Z,89.47
2022-10-28T22:29:36.966Z,89.21
2022-10-28T22:32:23.643Z,89.80
2022-10-28T22:35:10.768Z,89.90
2022-10-28T22:37:57.784Z,89.99
2022-10-28T22:40:46.156Z,89.85
2022-10-28T22:43:33.376Z,89.33
2022-10-28T22:46:20.590Z,88.33
2022-10-28T22:49:07.686Z,87.99
2022-10-28T22:51:54.643Z,89.42
2022-10-28T22:54:41.447Z,90.17
2022-10-28T22:57:29.480Z,89.86
2022-10-28T23:03:11.347Z,90.73
2022-10-28T23:05:59.305Z,91.45
2022-10-28T23:08:47.757Z,90.94
2022-10-28T23:11:35.945Z,89.72
2022-10-28T23:14:24.633Z,90.05
2022-10-28T23:17:11.751Z,90.66
2022-10-28T23:19:58.464Z,90.84
2022-10-28T23:22:47.420Z,90.56
2022-10-28T23:25:34.519Z,89.87
2022-10-28T23:28:21.521Z,89.27
2022-10-28T23:31:14.273Z,89.30
2022-10-28T23:34:00.971Z,90.67
2022-10-28T23:36:50.090Z,91.38
2022-10-28T23:39:37.094Z,91.90
2022-10-28T23:42:24.514Z,91.98
2022-10-28T23:45:11.769Z,91.85
2022-10-28T23:47:59.929Z,92.55
2022-10-28T23:50:47.213Z,93.24
2022-10-28T23:53:34.690Z,93.53
2022-10-28T23:56:21.623Z,92.90
2022-10-28T23:59:08.391Z,91.67
